Peleus — V2FV2 — position and weather

sailwx.info

Track history (hours):
 
Tides and Currents Weather Stations Pressure Air Temp Water Temp Dewpoint Dewpoint Depression Visibility Wind Speed Wind Dir Waves Ship Positions

Peleus

Last reported at 2017-Nov-18 00:03 UTC. Time now 2017-Nov-21 06:15 UTC.
Position N 47°05' W 007°17'.

Length 88 m; draft 5.7 m.

Type: Ship. MMSI: 305810000.

Date/timePositionNaut miles runAvg speedWind from/ knotsBaromVisibWave heightAir tempDewpointWater temp
2017-Nov-18 00:03N 47°05' W 007°17'2 9.2
2017-Nov-17 23:53N 47°06' W 007°16'6 9.5
2017-Nov-17 23:18N 47°11' W 007°12'7 9.4
2017-Nov-17 22:32N 47°18' W 007°07'120.7
2017-Nov-17 22:28N 47°19' W 007°06'11 9.4
2017-Nov-17 21:18N 47°29' W 006°59'510.3
2017-Nov-17 20:50N 47°33' W 006°55'410.9
2017-Nov-17 20:28N 47°36' W 006°53'1310.9
2017-Nov-17 19:16N 47°48' W 006°43'410.9
2017-Nov-17 18:52N 47°52' W 006°40'910.5
2017-Nov-17 17:59N 47°60' W 006°34'154 9.1
2017-Nov-17 01:00N 49°44' W 003°41'810.8
2017-Nov-17 00:18N 49°48' W 003°31'311.2
2017-Nov-17 00:00N 49°50' W 003°27'611.3
2017-Nov-16 23:30N 49°53' W 003°19'611.3
2017-Nov-16 23:00N 49°55' W 003°11'611.1
2017-Nov-16 22:30N 49°58' W 003°04'510.6
2017-Nov-16 22:00N 50°00' W 002°56'510.0
2017-Nov-16 21:30N 50°02' W 002°49'5 9.6
2017-Nov-16 21:00N 50°03' W 002°42'5 8.9
2017-Nov-16 20:26N 50°05' W 002°34'86 9.3
2017-Nov-16 11:13N 50°28' W 000°24'210.5
2017-Nov-16 11:00N 50°29' W 000°21'510.1
2017-Nov-16 10:30N 50°30' W 000°14'5 9.7
2017-Nov-16 10:00N 50°31' W 000°06'5 9.1
2017-Nov-16 09:30N 50°32' E 000°01'4 8.6
2017-Nov-16 09:00N 50°33' E 000°07'4 8.1
2017-Nov-16 08:30N 50°35' E 000°13'4 7.7
2017-Nov-16 08:00N 50°36' E 000°19'4 7.4
2017-Nov-16 07:30N 50°37' E 000°25'4 7.5
2017-Nov-16 07:00N 50°38' E 000°30'4 8.2
2017-Nov-16 06:30N 50°39' E 000°36'4 8.8
2017-Nov-16 06:00N 50°42' E 000°42'5 9.6
2017-Nov-16 05:30N 50°45' E 000°48'510.4
2017-Nov-16 05:00N 50°48' E 000°55'510.9
2017-Nov-16 04:30N 50°51' E 001°02'611.2
2017-Nov-16 04:00N 50°54' E 001°09'611.2
2017-Nov-16 03:30N 50°58' E 001°15'611.1
2017-Nov-16 03:00N 51°02' E 001°22'510.5
2017-Nov-16 02:30N 51°05' E 001°28'5 9.6
2017-Nov-16 02:00N 51°08' E 001°34'4 8.7
2017-Nov-16 01:30N 51°11' E 001°39'4 8.2
2017-Nov-16 01:01N 51°14' E 001°45'4 7.8
2017-Nov-16 00:30N 51°17' E 001°47'4 7.7
2017-Nov-16 00:00N 51°21' E 001°50'4 7.7
2017-Nov-15 23:30N 51°24' E 001°52'4 7.9
2017-Nov-15 23:00N 51°28' E 001°55'4 8.1
2017-Nov-15 22:30N 51°30' E 001°60'4 8.8
2017-Nov-15 22:00N 51°33' E 002°05'7 9.2
2017-Nov-15 21:17N 51°38' E 002°13'5 9.5
2017-Nov-15 20:43N 51°42' E 002°19'53 9.6
2017-Nov-15 15:11N 52°04' E 003°37'2 9.3
2017-Nov-15 15:00N 52°04' E 003°40'4 8.9
2017-Nov-15 14:30N 52°04' E 003°47'4 8.6
2017-Nov-15 14:00N 52°03' E 003°53'4 8.2
2017-Nov-15 13:30N 52°01' E 003°60'5 9.7
2017-Nov-15 13:01N 51°59' E 004°07'4 8.7
2017-Nov-15 12:30N 51°56' E 004°12'4 7.9
2017-Nov-15 12:00N 51°54' E 004°17'2 4.9
2017-Nov-15 11:30N 51°54' E 004°21'0 0.0
2017-Nov-15 10:58N 51°54' E 004°21'0 0.0
2017-Nov-15 10:28N 51°54' E 004°21'0 0.0
2017-Nov-15 09:58N 51°54' E 004°21'0 0.0
2017-Nov-15 09:28N 51°54' E 004°21'0 0.0
2017-Nov-15 08:58N 51°54' E 004°21'0 0.0
2017-Nov-15 08:28N 51°54' E 004°21'0 0.0
2017-Nov-15 07:58N 51°54' E 004°21'0 0.0
2017-Nov-15 07:28N 51°54' E 004°21'0 0.0
2017-Nov-15 06:58N 51°54' E 004°21'0 0.0
2017-Nov-15 06:28N 51°54' E 004°21'0 0.0
2017-Nov-15 05:58N 51°54' E 004°21'0 0.0
2017-Nov-15 05:28N 51°54' E 004°21'0 0.0
2017-Nov-15 04:58N 51°54' E 004°21'0 0.0
2017-Nov-15 04:28N 51°54' E 004°21'0 0.0
2017-Nov-15 03:58N 51°54' E 004°21'0 0.0
2017-Nov-15 03:28N 51°54' E 004°21'0 0.0
2017-Nov-15 02:58N 51°54' E 004°21'0 0.0
2017-Nov-15 02:28N 51°54' E 004°21'0 0.0
2017-Nov-15 01:58N 51°54' E 004°21'0 0.0
2017-Nov-15 01:28N 51°54' E 004°21'0 0.0
2017-Nov-15 00:58N 51°54' E 004°21'0 0.0
2017-Nov-15 00:28N 51°54' E 004°21'0 0.0
2017-Nov-14 23:58N 51°54' E 004°21'0 0.0
2017-Nov-14 23:28N 51°54' E 004°21'0 0.0
2017-Nov-14 22:58N 51°54' E 004°21'0 0.0
2017-Nov-14 22:28N 51°54' E 004°21'0 0.0
2017-Nov-14 21:58N 51°54' E 004°21'0 0.0
2017-Nov-14 21:28N 51°54' E 004°21'0 0.0
2017-Nov-14 20:58N 51°54' E 004°21'0 0.0
2017-Nov-14 20:28N 51°54' E 004°21'0 0.0
2017-Nov-14 19:55N 51°54' E 004°21'0 0.0
2017-Nov-14 19:28N 51°54' E 004°21'0 0.0
2017-Nov-14 18:55N 51°54' E 004°21'0 0.0
2017-Nov-14 18:28N 51°54' E 004°21'0 0.0
2017-Nov-14 17:58N 51°54' E 004°21'0 0.0
2017-Nov-14 17:28N 51°54' E 004°21'0 0.0
2017-Nov-14 16:58N 51°54' E 004°21'0 0.0
2017-Nov-14 16:28N 51°54' E 004°21'0 0.0
2017-Nov-14 15:58N 51°54' E 004°21'0 0.0
2017-Nov-14 15:28N 51°54' E 004°21'0 0.0
2017-Nov-14 14:58N 51°54' E 004°21'0 0.0
2017-Nov-14 14:28N 51°54' E 004°21'0 0.0
2017-Nov-14 13:58N 51°54' E 004°21'0 0.0
2017-Nov-14 13:28N 51°54' E 004°21'0 0.0
2017-Nov-14 12:58N 51°54' E 004°21'0 0.0
2017-Nov-14 12:28N 51°54' E 004°21'0 0.0
2017-Nov-14 11:58N 51°54' E 004°21'0 0.0
2017-Nov-14 11:28N 51°54' E 004°21'0 0.0
2017-Nov-14 10:58N 51°54' E 004°21'0 0.0
2017-Nov-14 10:28N 51°54' E 004°21'0 0.0
2017-Nov-14 09:58N 51°54' E 004°21'0 0.0
2017-Nov-14 09:28N 51°54' E 004°21'0 0.0
2017-Nov-14 08:58N 51°54' E 004°21'0 0.0
2017-Nov-14 08:28N 51°54' E 004°21'0 0.0
2017-Nov-14 07:58N 51°54' E 004°21'0 0.0
2017-Nov-14 07:25N 51°54' E 004°21'0 0.0
2017-Nov-14 06:58N 51°54' E 004°21'0 0.0
2017-Nov-14 06:28N 51°54' E 004°21'0 0.0
2017-Nov-14 05:58N 51°54' E 004°21'0 0.0
2017-Nov-14 05:28N 51°54' E 004°21'0 0.0
2017-Nov-14 04:58N 51°54' E 004°21'0 0.0
2017-Nov-14 04:28N 51°54' E 004°21'0 0.0
2017-Nov-14 03:58N 51°54' E 004°21'0 0.0
2017-Nov-14 03:28N 51°54' E 004°21'0 0.0
2017-Nov-14 02:58N 51°54' E 004°21'0 0.0
2017-Nov-14 02:25N 51°54' E 004°21'0 0.0
2017-Nov-14 01:58N 51°54' E 004°21'0 0.0
2017-Nov-14 01:28N 51°54' E 004°21'0 0.0
2017-Nov-14 00:58N 51°54' E 004°21'0 0.0
2017-Nov-14 00:28N 51°54' E 004°21'0 0.0
2017-Nov-13 23:58N 51°54' E 004°21'0 0.0
2017-Nov-13 23:28N 51°54' E 004°21'0 0.0
2017-Nov-13 22:58N 51°54' E 004°21'0 0.0
2017-Nov-13 22:28N 51°54' E 004°21'0 0.0
2017-Nov-13 21:58N 51°54' E 004°21'0 0.0
2017-Nov-13 01:58N 51°54' E 004°21'0 0.0
2017-Nov-13 01:28N 51°54' E 004°21'0 0.0
2017-Nov-13 00:58N 51°54' E 004°21'0 0.0
2017-Nov-13 00:28N 51°54' E 004°21'0 0.0
2017-Nov-12 23:58N 51°54' E 004°21'0 0.0
2017-Nov-12 23:28N 51°54' E 004°21'0 0.0
2017-Nov-12 22:58N 51°54' E 004°21'0 0.0
2017-Nov-12 22:28N 51°54' E 004°21'0 0.0
2017-Nov-12 21:55N 51°54' E 004°21'0 0.0
2017-Nov-12 21:28N 51°54' E 004°21'0 0.0
2017-Nov-12 20:58N 51°54' E 004°21'0 0.0
2017-Nov-12 20:28N 51°54' E 004°21'0 0.0
2017-Nov-12 19:58N 51°54' E 004°21'0 0.0
2017-Nov-12 19:28N 51°54' E 004°21'0 0.0
2017-Nov-12 18:58N 51°54' E 004°21'0 0.0
2017-Nov-12 18:28N 51°54' E 004°21'0 0.0
2017-Nov-12 17:58N 51°54' E 004°21'0 0.0
2017-Nov-12 17:28N 51°54' E 004°21'0 0.0
2017-Nov-12 16:58N 51°54' E 004°21'0 0.0
2017-Nov-12 16:28N 51°54' E 004°21'0 0.2
2017-Nov-12 16:00N 51°54' E 004°21'1 2.3
2017-Nov-12 15:30N 51°54' E 004°23'3 6.6
2017-Nov-12 15:00N 51°54' E 004°28'0 0.0
2017-Nov-12 14:29N 51°54' E 004°28'0 0.0
2017-Nov-12 13:59N 51°54' E 004°28'0 0.0
2017-Nov-12 13:29N 51°54' E 004°28'0 0.0
2017-Nov-12 12:59N 51°54' E 004°28'0 0.0
2017-Nov-12 12:29N 51°54' E 004°28'0 0.0
2017-Nov-12 11:59N 51°54' E 004°28'0 0.0
2017-Nov-12 11:29N 51°54' E 004°28'0 0.0
2017-Nov-12 10:59N 51°54' E 004°28'0 0.0
2017-Nov-12 10:29N 51°54' E 004°28'0 0.0
2017-Nov-12 09:59N 51°54' E 004°28'0 0.0
2017-Nov-12 09:29N 51°54' E 004°28'0 0.0
2017-Nov-12 08:59N 51°54' E 004°28'0 0.0
2017-Nov-12 08:29N 51°54' E 004°28'0 0.0
2017-Nov-12 07:59N 51°54' E 004°28'0 0.0
2017-Nov-12 07:29N 51°54' E 004°28'0 0.0
2017-Nov-12 06:59N 51°54' E 004°28'0 0.0
2017-Nov-12 06:29N 51°54' E 004°28'0 0.0
2017-Nov-12 05:59N 51°54' E 004°28'0 0.0
2017-Nov-12 05:29N 51°54' E 004°28'0 0.0
2017-Nov-12 04:59N 51°54' E 004°28'0 0.0
2017-Nov-12 04:29N 51°54' E 004°28'0 0.0
2017-Nov-12 03:59N 51°54' E 004°28'0 0.0
2017-Nov-12 03:29N 51°54' E 004°28'0 0.0
2017-Nov-12 02:59N 51°54' E 004°28'0 0.0
2017-Nov-12 02:29N 51°54' E 004°28'0 0.0
2017-Nov-12 01:59N 51°54' E 004°28'0 0.0
2017-Nov-12 01:29N 51°54' E 004°28'0 0.0
2017-Nov-12 00:59N 51°54' E 004°28'0 0.0
2017-Nov-12 00:29N 51°54' E 004°28'0 0.0
2017-Nov-11 23:59N 51°54' E 004°28'0 0.0
2017-Nov-11 23:29N 51°54' E 004°28'0 0.0
2017-Nov-11 22:59N 51°54' E 004°28'0 0.0
2017-Nov-11 22:29N 51°54' E 004°28'0 0.0
2017-Nov-11 21:59N 51°54' E 004°28'0 0.0
2017-Nov-11 21:29N 51°54' E 004°28'0 0.0
2017-Nov-11 20:59N 51°54' E 004°28'0 0.0
2017-Nov-11 20:29N 51°54' E 004°28'0 0.0
2017-Nov-11 19:59N 51°54' E 004°28'0 0.0
2017-Nov-11 19:29N 51°54' E 004°28'0 0.0
2017-Nov-11 18:59N 51°54' E 004°28'0 0.0
2017-Nov-11 18:29N 51°54' E 004°28'0 0.0
2017-Nov-11 17:59N 51°54' E 004°28'0 0.0
2017-Nov-11 17:29N 51°54' E 004°28'0 0.0
2017-Nov-11 16:59N 51°54' E 004°28'0 0.0
2017-Nov-11 16:29N 51°54' E 004°28'0 0.0
2017-Nov-11 15:59N 51°54' E 004°28'0 0.0
2017-Nov-11 15:29N 51°54' E 004°28'0 0.0
2017-Nov-11 14:59N 51°54' E 004°28'0 0.0
2017-Nov-11 14:29N 51°54' E 004°28'0 0.0
2017-Nov-11 13:59N 51°54' E 004°28'0 0.0
2017-Nov-11 13:29N 51°54' E 004°28'0 0.0
2017-Nov-11 12:59N 51°54' E 004°28'0 0.0
2017-Nov-11 12:29N 51°54' E 004°28'0 0.0
2017-Nov-11 11:59N 51°54' E 004°28'0 0.0
2017-Nov-11 11:29N 51°54' E 004°28'0 0.0
2017-Nov-11 10:59N 51°54' E 004°28'0 0.0
2017-Nov-11 10:29N 51°54' E 004°28'0 0.0
2017-Nov-11 09:59N 51°54' E 004°28'0 0.0
2017-Nov-11 09:29N 51°54' E 004°28'0 0.0
2017-Nov-11 08:59N 51°54' E 004°28'0 0.0
2017-Nov-11 08:29N 51°54' E 004°28'0 0.0
2017-Nov-11 07:59N 51°54' E 004°28'0 0.0
2017-Nov-11 07:29N 51°54' E 004°28'0 0.0
2017-Nov-11 06:59N 51°54' E 004°28'0 0.0
2017-Nov-11 06:29N 51°54' E 004°28'0 0.0
2017-Nov-11 05:59N 51°54' E 004°28'0 0.0
2017-Nov-11 05:29N 51°54' E 004°28'0 0.0
2017-Nov-11 04:59N 51°54' E 004°28'0 0.0
2017-Nov-11 04:29N 51°54' E 004°28'0 0.0
2017-Nov-11 03:59N 51°54' E 004°28'0 0.0
2017-Nov-11 03:29N 51°54' E 004°28'0 0.0
2017-Nov-11 02:59N 51°54' E 004°28'0 0.0
2017-Nov-11 02:29N 51°54' E 004°28'0 0.0
2017-Nov-11 01:59N 51°54' E 004°28'0 0.0
2017-Nov-11 01:29N 51°54' E 004°28'0 0.0
2017-Nov-11 00:59N 51°54' E 004°28'0 0.0
2017-Nov-11 00:29N 51°54' E 004°28'0 0.0
2017-Nov-10 23:59N 51°54' E 004°28'0 0.0
2017-Nov-10 23:29N 51°54' E 004°28'0 0.0
2017-Nov-10 22:59N 51°54' E 004°28'0 0.0
2017-Nov-10 22:29N 51°54' E 004°28'0 0.0
2017-Nov-10 21:59N 51°54' E 004°28'0 0.0
2017-Nov-10 21:29N 51°54' E 004°28'0 0.0
2017-Nov-10 20:59N 51°54' E 004°28'0 0.0
2017-Nov-10 20:29N 51°54' E 004°28'0 0.0
2017-Nov-10 19:59N 51°54' E 004°28'0 0.0
2017-Nov-10 19:29N 51°54' E 004°28'0 0.0
2017-Nov-10 18:59N 51°54' E 004°28'0 0.0
2017-Nov-10 18:29N 51°54' E 004°28'0 0.0
2017-Nov-10 17:59N 51°54' E 004°28'0 0.0
2017-Nov-10 17:29N 51°54' E 004°28'0 0.0
2017-Nov-10 16:59N 51°54' E 004°28'0 0.0
2017-Nov-10 16:29N 51°54' E 004°28'0 0.0
2017-Nov-10 15:59N 51°54' E 004°28'0 0.0
2017-Nov-10 15:29N 51°54' E 004°28'0 0.0
2017-Nov-10 14:59N 51°54' E 004°28'0 0.0
2017-Nov-10 14:29N 51°54' E 004°28'0 0.0
2017-Nov-10 13:59N 51°54' E 004°28'0 0.0
2017-Nov-10 13:29N 51°54' E 004°28'0 0.0
2017-Nov-10 12:59N 51°54' E 004°28'0 0.0
2017-Nov-10 12:29N 51°54' E 004°28'0 0.0
2017-Nov-10 11:59N 51°54' E 004°28'0 0.0
2017-Nov-10 11:29N 51°54' E 004°28'0 0.0
2017-Nov-10 10:59N 51°54' E 004°28'0 0.0
2017-Nov-10 10:29N 51°54' E 004°28'0 0.0
2017-Nov-10 09:59N 51°54' E 004°28'0 0.0
2017-Nov-10 09:29N 51°54' E 004°28'0 0.0
2017-Nov-10 08:59N 51°54' E 004°28'0 0.0
2017-Nov-10 08:29N 51°54' E 004°28'0 0.0
2017-Nov-10 07:59N 51°54' E 004°28'0 0.0
2017-Nov-10 07:29N 51°54' E 004°28'0 0.0
2017-Nov-10 06:59N 51°54' E 004°28'0 0.0
2017-Nov-10 06:29N 51°54' E 004°28'0 0.0
2017-Nov-10 05:59N 51°54' E 004°28'0 0.0
2017-Nov-10 05:29N 51°54' E 004°28'0 0.0
2017-Nov-10 04:59N 51°54' E 004°28'0 0.0
2017-Nov-10 04:29N 51°54' E 004°28'0 0.0
2017-Nov-10 03:59N 51°54' E 004°28'0 0.0
2017-Nov-10 03:29N 51°54' E 004°28'0 0.0
2017-Nov-10 02:59N 51°54' E 004°28'0 0.0
2017-Nov-10 02:29N 51°54' E 004°28'0 0.0
2017-Nov-10 01:59N 51°54' E 004°28'0 0.0
2017-Nov-10 01:29N 51°54' E 004°28'0 0.0
2017-Nov-10 00:59N 51°54' E 004°28'0 0.0
2017-Nov-10 00:29N 51°54' E 004°28'0 0.0
2017-Nov-09 23:59N 51°54' E 004°28'0 0.0
2017-Nov-09 23:29N 51°54' E 004°28'0 0.0
2017-Nov-09 22:59N 51°54' E 004°28'0 0.0
2017-Nov-09 22:29N 51°54' E 004°28'0 0.0
2017-Nov-09 21:59N 51°54' E 004°28'0 0.0
2017-Nov-09 21:29N 51°54' E 004°28'0 0.0
2017-Nov-09 20:59N 51°54' E 004°28'0 0.0
2017-Nov-09 20:29N 51°54' E 004°28'0 0.0
2017-Nov-09 19:59N 51°54' E 004°28'0 0.0
2017-Nov-09 19:29N 51°54' E 004°28'0 0.0
2017-Nov-09 18:59N 51°54' E 004°28'0 0.0
2017-Nov-09 18:29N 51°54' E 004°28'0 0.0
2017-Nov-09 17:59N 51°54' E 004°28'0 0.0
2017-Nov-09 17:29N 51°54' E 004°28'0 0.0
2017-Nov-09 16:59N 51°54' E 004°28'0 0.0
2017-Nov-09 16:29N 51°54' E 004°28'0 0.0
2017-Nov-09 15:59N 51°54' E 004°28'0 0.0
2017-Nov-09 15:29N 51°54' E 004°28'0 0.0
2017-Nov-09 14:59N 51°54' E 004°28'0 0.0
2017-Nov-09 14:29N 51°54' E 004°28'0 0.0
2017-Nov-09 13:59N 51°54' E 004°28'0 0.0
2017-Nov-09 13:29N 51°54' E 004°28'0 0.0
2017-Nov-09 12:59N 51°54' E 004°28'0 0.0
2017-Nov-09 12:29N 51°54' E 004°28'0 0.0
2017-Nov-09 11:59N 51°54' E 004°28'0 0.0
2017-Nov-09 11:29N 51°54' E 004°28'0 0.0
2017-Nov-09 10:59N 51°54' E 004°28'0 0.0
2017-Nov-09 10:29N 51°54' E 004°28'0 0.0
2017-Nov-09 09:59N 51°54' E 004°28'0 0.0
2017-Nov-09 09:29N 51°54' E 004°28'0 0.0
2017-Nov-09 08:59N 51°54' E 004°28'0 0.0
2017-Nov-09 08:29N 51°54' E 004°28'0 0.0
2017-Nov-09 07:59N 51°54' E 004°28'0 0.0
2017-Nov-09 07:29N 51°54' E 004°28'0 0.0
2017-Nov-09 06:59N 51°54' E 004°28'0 0.2
2017-Nov-09 06:30N 51°54' E 004°28'5 9.2
2017-Nov-09 06:00N 51°54' E 004°21'3 5.6
2017-Nov-09 05:28N 51°53' E 004°16'0 0.0
2017-Nov-09 04:58N 51°53' E 004°16'0 0.0
2017-Nov-09 04:28N 51°53' E 004°16'0 0.0
2017-Nov-09 03:58N 51°53' E 004°16'0 0.0
2017-Nov-09 03:28N 51°53' E 004°16'0 0.0
2017-Nov-09 02:58N 51°53' E 004°16'0 0.0
2017-Nov-09 02:28N 51°53' E 004°16'0 0.0
2017-Nov-09 01:58N 51°53' E 004°16'0 0.0
2017-Nov-09 01:28N 51°53' E 004°16'0 0.0
2017-Nov-09 00:58N 51°53' E 004°16'0 0.0
2017-Nov-09 00:25N 51°53' E 004°16'0 0.0
2017-Nov-08 23:58N 51°53' E 004°16'0 0.0
2017-Nov-08 23:28N 51°53' E 004°16'0 0.0
2017-Nov-08 22:58N 51°53' E 004°16'0 0.0
2017-Nov-08 22:28N 51°53' E 004°16'0 0.0
2017-Nov-08 21:58N 51°53' E 004°16'0 0.0
2017-Nov-08 21:28N 51°53' E 004°16'0 0.0
2017-Nov-08 20:55N 51°53' E 004°16'0 0.0
2017-Nov-08 20:28N 51°53' E 004°16'0 0.0
2017-Nov-08 19:58N 51°53' E 004°16'0 0.0
2017-Nov-08 19:28N 51°53' E 004°16'0 0.0
2017-Nov-08 18:58N 51°53' E 004°16'0 0.0
2017-Nov-08 18:28N 51°53' E 004°16'0 0.0
2017-Nov-08 17:58N 51°53' E 004°16'0 0.0
2017-Nov-08 17:28N 51°53' E 004°16'0 0.0
2017-Nov-08 16:58N 51°53' E 004°16'0 0.0
2017-Nov-08 16:28N 51°53' E 004°16'0 0.0
2017-Nov-08 15:58N 51°53' E 004°16'0 0.0
2017-Nov-08 15:28N 51°53' E 004°16'0 0.0
2017-Nov-08 14:58N 51°53' E 004°16'0 0.0
2017-Nov-08 14:25N 51°53' E 004°16'0 0.0
2017-Nov-08 13:58N 51°53' E 004°16'0 0.0
2017-Nov-08 13:28N 51°53' E 004°16'0 0.0
2017-Nov-08 12:58N 51°53' E 004°16'0 0.0
2017-Nov-08 12:28N 51°53' E 004°16'0 0.0
2017-Nov-08 11:58N 51°53' E 004°16'0 0.0
2017-Nov-08 11:31N 51°53' E 004°16'1 2.3
2017-Nov-08 11:01N 51°53' E 004°18'3 6.4
2017-Nov-08 10:31N 51°55' E 004°14'4 7.8
2017-Nov-08 10:00N 51°58' E 004°09'4 7.7
2017-Nov-08 09:31N 51°59' E 004°03'4 8.4
2017-Nov-08 09:00N 51°60' E 003°57'4 7.4
2017-Nov-08 08:31N 52°00' E 003°51'3 5.7
2017-Nov-08 08:00N 51°60' E 003°46'4 7.4
2017-Nov-08 07:30N 51°58' E 003°41'5 7.5
2017-Nov-08 06:53N 51°57' E 003°33'3 7.2
2017-Nov-08 06:26N 51°56' E 003°28'3 7.5
2017-Nov-08 06:00N 51°55' E 003°23'4 7.3
2017-Nov-08 05:28N 51°54' E 003°17'3 7.3
2017-Nov-08 05:00N 51°53' E 003°12'30 7.5
2017-Nov-08 01:00N 51°39' E 002°29'  
Track history (hours):
 
Tides and Currents Weather Stations Pressure Air Temp Water Temp Dewpoint Dewpoint Depression Visibility Wind Speed Wind Dir Waves Ship Positions

Peleus

Last reported at 2017-Nov-18 00:03 UTC. Time now 2017-Nov-21 06:15 UTC.
Position N 47°05' W 007°17'.

Length 88 m; draft 5.7 m.

Type: Ship. MMSI: 305810000.

Date/timePositionNaut miles runAvg speedWind from/ knotsBaromVisibWave heightAir tempDewpointWater temp
2017-Nov-18 00:03N 47°05' W 007°17'2 9.2
2017-Nov-17 23:53N 47°06' W 007°16'6 9.5
2017-Nov-17 23:18N 47°11' W 007°12'7 9.4
2017-Nov-17 22:32N 47°18' W 007°07'120.7
2017-Nov-17 22:28N 47°19' W 007°06'11 9.4
2017-Nov-17 21:18N 47°29' W 006°59'510.3
2017-Nov-17 20:50N 47°33' W 006°55'410.9
2017-Nov-17 20:28N 47°36' W 006°53'1310.9
2017-Nov-17 19:16N 47°48' W 006°43'410.9
2017-Nov-17 18:52N 47°52' W 006°40'910.5
2017-Nov-17 17:59N 47°60' W 006°34'154 9.1
2017-Nov-17 01:00N 49°44' W 003°41'810.8
2017-Nov-17 00:18N 49°48' W 003°31'311.2
2017-Nov-17 00:00N 49°50' W 003°27'611.3
2017-Nov-16 23:30N 49°53' W 003°19'611.3
2017-Nov-16 23:00N 49°55' W 003°11'611.1
2017-Nov-16 22:30N 49°58' W 003°04'510.6
2017-Nov-16 22:00N 50°00' W 002°56'510.0
2017-Nov-16 21:30N 50°02' W 002°49'5 9.6
2017-Nov-16 21:00N 50°03' W 002°42'5 8.9
2017-Nov-16 20:26N 50°05' W 002°34'86 9.3
2017-Nov-16 11:13N 50°28' W 000°24'210.5
2017-Nov-16 11:00N 50°29' W 000°21'510.1
2017-Nov-16 10:30N 50°30' W 000°14'5 9.7
2017-Nov-16 10:00N 50°31' W 000°06'5 9.1
2017-Nov-16 09:30N 50°32' E 000°01'4 8.6
2017-Nov-16 09:00N 50°33' E 000°07'4 8.1
2017-Nov-16 08:30N 50°35' E 000°13'4 7.7
2017-Nov-16 08:00N 50°36' E 000°19'4 7.4
2017-Nov-16 07:30N 50°37' E 000°25'4 7.5
2017-Nov-16 07:00N 50°38' E 000°30'4 8.2
2017-Nov-16 06:30N 50°39' E 000°36'4 8.8
2017-Nov-16 06:00N 50°42' E 000°42'5 9.6
2017-Nov-16 05:30N 50°45' E 000°48'510.4
2017-Nov-16 05:00N 50°48' E 000°55'510.9
2017-Nov-16 04:30N 50°51' E 001°02'611.2
2017-Nov-16 04:00N 50°54' E 001°09'611.2
2017-Nov-16 03:30N 50°58' E 001°15'611.1
2017-Nov-16 03:00N 51°02' E 001°22'510.5
2017-Nov-16 02:30N 51°05' E 001°28'5 9.6
2017-Nov-16 02:00N 51°08' E 001°34'4 8.7
2017-Nov-16 01:30N 51°11' E 001°39'4 8.2
2017-Nov-16 01:01N 51°14' E 001°45'4 7.8
2017-Nov-16 00:30N 51°17' E 001°47'4 7.7
2017-Nov-16 00:00N 51°21' E 001°50'4 7.7
2017-Nov-15 23:30N 51°24' E 001°52'4 7.9
2017-Nov-15 23:00N 51°28' E 001°55'4 8.1
2017-Nov-15 22:30N 51°30' E 001°60'4 8.8
2017-Nov-15 22:00N 51°33' E 002°05'7 9.2
2017-Nov-15 21:17N 51°38' E 002°13'5 9.5
2017-Nov-15 20:43N 51°42' E 002°19'53 9.6
2017-Nov-15 15:11N 52°04' E 003°37'2 9.3
2017-Nov-15 15:00N 52°04' E 003°40'4 8.9
2017-Nov-15 14:30N 52°04' E 003°47'4 8.6
2017-Nov-15 14:00N 52°03' E 003°53'4 8.2
2017-Nov-15 13:30N 52°01' E 003°60'5 9.7
2017-Nov-15 13:01N 51°59' E 004°07'4 8.7
2017-Nov-15 12:30N 51°56' E 004°12'4 7.9
2017-Nov-15 12:00N 51°54' E 004°17'2 4.9
2017-Nov-15 11:30N 51°54' E 004°21'0 0.0
2017-Nov-15 10:58N 51°54' E 004°21'0 0.0
2017-Nov-15 10:28N 51°54' E 004°21'0 0.0
2017-Nov-15 09:58N 51°54' E 004°21'0 0.0
2017-Nov-15 09:28N 51°54' E 004°21'0 0.0
2017-Nov-15 08:58N 51°54' E 004°21'0 0.0
2017-Nov-15 08:28N 51°54' E 004°21'0 0.0
2017-Nov-15 07:58N 51°54' E 004°21'0 0.0
2017-Nov-15 07:28N 51°54' E 004°21'0 0.0
2017-Nov-15 06:58N 51°54' E 004°21'0 0.0
2017-Nov-15 06:28N 51°54' E 004°21'0 0.0
2017-Nov-15 05:58N 51°54' E 004°21'0 0.0
2017-Nov-15 05:28N 51°54' E 004°21'0 0.0
2017-Nov-15 04:58N 51°54' E 004°21'0 0.0
2017-Nov-15 04:28N 51°54' E 004°21'0 0.0
2017-Nov-15 03:58N 51°54' E 004°21'0 0.0
2017-Nov-15 03:28N 51°54' E 004°21'0 0.0
2017-Nov-15 02:58N 51°54' E 004°21'0 0.0
2017-Nov-15 02:28N 51°54' E 004°21'0 0.0
2017-Nov-15 01:58N 51°54' E 004°21'0 0.0
2017-Nov-15 01:28N 51°54' E 004°21'0 0.0
2017-Nov-15 00:58N 51°54' E 004°21'0 0.0
2017-Nov-15 00:28N 51°54' E 004°21'0 0.0
2017-Nov-14 23:58N 51°54' E 004°21'0 0.0
2017-Nov-14 23:28N 51°54' E 004°21'0 0.0
2017-Nov-14 22:58N 51°54' E 004°21'0 0.0
2017-Nov-14 22:28N 51°54' E 004°21'0 0.0
2017-Nov-14 21:58N 51°54' E 004°21'0 0.0
2017-Nov-14 21:28N 51°54' E 004°21'0 0.0
2017-Nov-14 20:58N 51°54' E 004°21'0 0.0
2017-Nov-14 20:28N 51°54' E 004°21'0 0.0
2017-Nov-14 19:55N 51°54' E 004°21'0 0.0
2017-Nov-14 19:28N 51°54' E 004°21'0 0.0
2017-Nov-14 18:55N 51°54' E 004°21'0 0.0
2017-Nov-14 18:28N 51°54' E 004°21'0 0.0
2017-Nov-14 17:58N 51°54' E 004°21'0 0.0
2017-Nov-14 17:28N 51°54' E 004°21'0 0.0
2017-Nov-14 16:58N 51°54' E 004°21'0 0.0
2017-Nov-14 16:28N 51°54' E 004°21'0 0.0
2017-Nov-14 15:58N 51°54' E 004°21'0 0.0
2017-Nov-14 15:28N 51°54' E 004°21'0 0.0
2017-Nov-14 14:58N 51°54' E 004°21'0 0.0
2017-Nov-14 14:28N 51°54' E 004°21'0 0.0
2017-Nov-14 13:58N 51°54' E 004°21'0 0.0
2017-Nov-14 13:28N 51°54' E 004°21'0 0.0
2017-Nov-14 12:58N 51°54' E 004°21'0 0.0
2017-Nov-14 12:28N 51°54' E 004°21'0 0.0
2017-Nov-14 11:58N 51°54' E 004°21'0 0.0
2017-Nov-14 11:28N 51°54' E 004°21'0 0.0
2017-Nov-14 10:58N 51°54' E 004°21'0 0.0
2017-Nov-14 10:28N 51°54' E 004°21'0 0.0
2017-Nov-14 09:58N 51°54' E 004°21'0 0.0
2017-Nov-14 09:28N 51°54' E 004°21'0 0.0
2017-Nov-14 08:58N 51°54' E 004°21'0 0.0
2017-Nov-14 08:28N 51°54' E 004°21'0 0.0
2017-Nov-14 07:58N 51°54' E 004°21'0 0.0
2017-Nov-14 07:25N 51°54' E 004°21'0 0.0
2017-Nov-14 06:58N 51°54' E 004°21'0 0.0
2017-Nov-14 06:28N 51°54' E 004°21'0 0.0
2017-Nov-14 05:58N 51°54' E 004°21'0 0.0
2017-Nov-14 05:28N 51°54' E 004°21'0 0.0
2017-Nov-14 04:58N 51°54' E 004°21'0 0.0
2017-Nov-14 04:28N 51°54' E 004°21'0 0.0
2017-Nov-14 03:58N 51°54' E 004°21'0 0.0
2017-Nov-14 03:28N 51°54' E 004°21'0 0.0
2017-Nov-14 02:58N 51°54' E 004°21'0 0.0
2017-Nov-14 02:25N 51°54' E 004°21'0 0.0
2017-Nov-14 01:58N 51°54' E 004°21'0 0.0
2017-Nov-14 01:28N 51°54' E 004°21'0 0.0
2017-Nov-14 00:58N 51°54' E 004°21'0 0.0
2017-Nov-14 00:28N 51°54' E 004°21'0 0.0
2017-Nov-13 23:58N 51°54' E 004°21'0 0.0
2017-Nov-13 23:28N 51°54' E 004°21'0 0.0
2017-Nov-13 22:58N 51°54' E 004°21'0 0.0
2017-Nov-13 22:28N 51°54' E 004°21'0 0.0
2017-Nov-13 21:58N 51°54' E 004°21'0 0.0
2017-Nov-13 01:58N 51°54' E 004°21'0 0.0
2017-Nov-13 01:28N 51°54' E 004°21'0 0.0
2017-Nov-13 00:58N 51°54' E 004°21'0 0.0
2017-Nov-13 00:28N 51°54' E 004°21'0 0.0
2017-Nov-12 23:58N 51°54' E 004°21'0 0.0
2017-Nov-12 23:28N 51°54' E 004°21'0 0.0
2017-Nov-12 22:58N 51°54' E 004°21'0 0.0
2017-Nov-12 22:28N 51°54' E 004°21'0 0.0
2017-Nov-12 21:55N 51°54' E 004°21'0 0.0
2017-Nov-12 21:28N 51°54' E 004°21'0 0.0
2017-Nov-12 20:58N 51°54' E 004°21'0 0.0
2017-Nov-12 20:28N 51°54' E 004°21'0 0.0
2017-Nov-12 19:58N 51°54' E 004°21'0 0.0
2017-Nov-12 19:28N 51°54' E 004°21'0 0.0
2017-Nov-12 18:58N 51°54' E 004°21'0 0.0
2017-Nov-12 18:28N 51°54' E 004°21'0 0.0
2017-Nov-12 17:58N 51°54' E 004°21'0 0.0
2017-Nov-12 17:28N 51°54' E 004°21'0 0.0
2017-Nov-12 16:58N 51°54' E 004°21'0 0.0
2017-Nov-12 16:28N 51°54' E 004°21'0 0.2
2017-Nov-12 16:00N 51°54' E 004°21'1 2.3
2017-Nov-12 15:30N 51°54' E 004°23'3 6.6
2017-Nov-12 15:00N 51°54' E 004°28'0 0.0
2017-Nov-12 14:29N 51°54' E 004°28'0 0.0
2017-Nov-12 13:59N 51°54' E 004°28'0 0.0
2017-Nov-12 13:29N 51°54' E 004°28'0 0.0
2017-Nov-12 12:59N 51°54' E 004°28'0 0.0
2017-Nov-12 12:29N 51°54' E 004°28'0 0.0
2017-Nov-12 11:59N 51°54' E 004°28'0 0.0
2017-Nov-12 11:29N 51°54' E 004°28'0 0.0
2017-Nov-12 10:59N 51°54' E 004°28'0 0.0
2017-Nov-12 10:29N 51°54' E 004°28'0 0.0
2017-Nov-12 09:59N 51°54' E 004°28'0 0.0
2017-Nov-12 09:29N 51°54' E 004°28'0 0.0
2017-Nov-12 08:59N 51°54' E 004°28'0 0.0
2017-Nov-12 08:29N 51°54' E 004°28'0 0.0
2017-Nov-12 07:59N 51°54' E 004°28'0 0.0
2017-Nov-12 07:29N 51°54' E 004°28'0 0.0
2017-Nov-12 06:59N 51°54' E 004°28'0 0.0
2017-Nov-12 06:29N 51°54' E 004°28'0 0.0
2017-Nov-12 05:59N 51°54' E 004°28'0 0.0
2017-Nov-12 05:29N 51°54' E 004°28'0 0.0
2017-Nov-12 04:59N 51°54' E 004°28'0 0.0
2017-Nov-12 04:29N 51°54' E 004°28'0 0.0
2017-Nov-12 03:59N 51°54' E 004°28'0 0.0
2017-Nov-12 03:29N 51°54' E 004°28'0 0.0
2017-Nov-12 02:59N 51°54' E 004°28'0 0.0
2017-Nov-12 02:29N 51°54' E 004°28'0 0.0
2017-Nov-12 01:59N 51°54' E 004°28'0 0.0
2017-Nov-12 01:29N 51°54' E 004°28'0 0.0
2017-Nov-12 00:59N 51°54' E 004°28'0 0.0
2017-Nov-12 00:29N 51°54' E 004°28'0 0.0
2017-Nov-11 23:59N 51°54' E 004°28'0 0.0
2017-Nov-11 23:29N 51°54' E 004°28'0 0.0
2017-Nov-11 22:59N 51°54' E 004°28'0 0.0
2017-Nov-11 22:29N 51°54' E 004°28'0 0.0
2017-Nov-11 21:59N 51°54' E 004°28'0 0.0
2017-Nov-11 21:29N 51°54' E 004°28'0 0.0
2017-Nov-11 20:59N 51°54' E 004°28'0 0.0
2017-Nov-11 20:29N 51°54' E 004°28'0 0.0
2017-Nov-11 19:59N 51°54' E 004°28'0 0.0
2017-Nov-11 19:29N 51°54' E 004°28'0 0.0
2017-Nov-11 18:59N 51°54' E 004°28'0 0.0
2017-Nov-11 18:29N 51°54' E 004°28'0 0.0
2017-Nov-11 17:59N 51°54' E 004°28'0 0.0
2017-Nov-11 17:29N 51°54' E 004°28'0 0.0
2017-Nov-11 16:59N 51°54' E 004°28'0 0.0
2017-Nov-11 16:29N 51°54' E 004°28'0 0.0
2017-Nov-11 15:59N 51°54' E 004°28'0 0.0
2017-Nov-11 15:29N 51°54' E 004°28'0 0.0
2017-Nov-11 14:59N 51°54' E 004°28'0 0.0
2017-Nov-11 14:29N 51°54' E 004°28'0 0.0
2017-Nov-11 13:59N 51°54' E 004°28'0 0.0
2017-Nov-11 13:29N 51°54' E 004°28'0 0.0
2017-Nov-11 12:59N 51°54' E 004°28'0 0.0
2017-Nov-11 12:29N 51°54' E 004°28'0 0.0
2017-Nov-11 11:59N 51°54' E 004°28'0 0.0
2017-Nov-11 11:29N 51°54' E 004°28'0 0.0
2017-Nov-11 10:59N 51°54' E 004°28'0 0.0
2017-Nov-11 10:29N 51°54' E 004°28'0 0.0
2017-Nov-11 09:59N 51°54' E 004°28'0 0.0
2017-Nov-11 09:29N 51°54' E 004°28'0 0.0
2017-Nov-11 08:59N 51°54' E 004°28'0 0.0
2017-Nov-11 08:29N 51°54' E 004°28'0 0.0
2017-Nov-11 07:59N 51°54' E 004°28'0 0.0
2017-Nov-11 07:29N 51°54' E 004°28'0 0.0
2017-Nov-11 06:59N 51°54' E 004°28'0 0.0
2017-Nov-11 06:29N 51°54' E 004°28'0 0.0
2017-Nov-11 05:59N 51°54' E 004°28'0 0.0
2017-Nov-11 05:29N 51°54' E 004°28'0 0.0
2017-Nov-11 04:59N 51°54' E 004°28'0 0.0
2017-Nov-11 04:29N 51°54' E 004°28'0 0.0
2017-Nov-11 03:59N 51°54' E 004°28'0 0.0
2017-Nov-11 03:29N 51°54' E 004°28'0 0.0
2017-Nov-11 02:59N 51°54' E 004°28'0 0.0
2017-Nov-11 02:29N 51°54' E 004°28'0 0.0
2017-Nov-11 01:59N 51°54' E 004°28'0 0.0
2017-Nov-11 01:29N 51°54' E 004°28'0 0.0
2017-Nov-11 00:59N 51°54' E 004°28'0 0.0
2017-Nov-11 00:29N 51°54' E 004°28'0 0.0
2017-Nov-10 23:59N 51°54' E 004°28'0 0.0
2017-Nov-10 23:29N 51°54' E 004°28'0 0.0
2017-Nov-10 22:59N 51°54' E 004°28'0 0.0
2017-Nov-10 22:29N 51°54' E 004°28'0 0.0
2017-Nov-10 21:59N 51°54' E 004°28'0 0.0
2017-Nov-10 21:29N 51°54' E 004°28'0 0.0
2017-Nov-10 20:59N 51°54' E 004°28'0 0.0
2017-Nov-10 20:29N 51°54' E 004°28'0 0.0
2017-Nov-10 19:59N 51°54' E 004°28'0 0.0
2017-Nov-10 19:29N 51°54' E 004°28'0 0.0
2017-Nov-10 18:59N 51°54' E 004°28'0 0.0
2017-Nov-10 18:29N 51°54' E 004°28'0 0.0
2017-Nov-10 17:59N 51°54' E 004°28'0 0.0
2017-Nov-10 17:29N 51°54' E 004°28'0 0.0
2017-Nov-10 16:59N 51°54' E 004°28'0 0.0
2017-Nov-10 16:29N 51°54' E 004°28'0 0.0
2017-Nov-10 15:59N 51°54' E 004°28'0 0.0
2017-Nov-10 15:29N 51°54' E 004°28'0 0.0
2017-Nov-10 14:59N 51°54' E 004°28'0 0.0
2017-Nov-10 14:29N 51°54' E 004°28'0 0.0
2017-Nov-10 13:59N 51°54' E 004°28'0 0.0
2017-Nov-10 13:29N 51°54' E 004°28'0 0.0
2017-Nov-10 12:59N 51°54' E 004°28'0 0.0
2017-Nov-10 12:29N 51°54' E 004°28'0 0.0
2017-Nov-10 11:59N 51°54' E 004°28'0 0.0
2017-Nov-10 11:29N 51°54' E 004°28'0 0.0
2017-Nov-10 10:59N 51°54' E 004°28'0 0.0
2017-Nov-10 10:29N 51°54' E 004°28'0 0.0
2017-Nov-10 09:59N 51°54' E 004°28'0 0.0
2017-Nov-10 09:29N 51°54' E 004°28'0 0.0
2017-Nov-10 08:59N 51°54' E 004°28'0 0.0
2017-Nov-10 08:29N 51°54' E 004°28'0 0.0
2017-Nov-10 07:59N 51°54' E 004°28'0 0.0
2017-Nov-10 07:29N 51°54' E 004°28'0 0.0
2017-Nov-10 06:59N 51°54' E 004°28'0 0.0
2017-Nov-10 06:29N 51°54' E 004°28'0 0.0
2017-Nov-10 05:59N 51°54' E 004°28'0 0.0
2017-Nov-10 05:29N 51°54' E 004°28'0 0.0
2017-Nov-10 04:59N 51°54' E 004°28'0 0.0
2017-Nov-10 04:29N 51°54' E 004°28'0 0.0
2017-Nov-10 03:59N 51°54' E 004°28'0 0.0
2017-Nov-10 03:29N 51°54' E 004°28'0 0.0
2017-Nov-10 02:59N 51°54' E 004°28'0 0.0
2017-Nov-10 02:29N 51°54' E 004°28'0 0.0
2017-Nov-10 01:59N 51°54' E 004°28'0 0.0
2017-Nov-10 01:29N 51°54' E 004°28'0 0.0
2017-Nov-10 00:59N 51°54' E 004°28'0 0.0
2017-Nov-10 00:29N 51°54' E 004°28'0 0.0
2017-Nov-09 23:59N 51°54' E 004°28'0 0.0
2017-Nov-09 23:29N 51°54' E 004°28'0 0.0
2017-Nov-09 22:59N 51°54' E 004°28'0 0.0
2017-Nov-09 22:29N 51°54' E 004°28'0 0.0
2017-Nov-09 21:59N 51°54' E 004°28'0 0.0
2017-Nov-09 21:29N 51°54' E 004°28'0 0.0
2017-Nov-09 20:59N 51°54' E 004°28'0 0.0
2017-Nov-09 20:29N 51°54' E 004°28'0 0.0
2017-Nov-09 19:59N 51°54' E 004°28'0 0.0
2017-Nov-09 19:29N 51°54' E 004°28'0 0.0
2017-Nov-09 18:59N 51°54' E 004°28'0 0.0
2017-Nov-09 18:29N 51°54' E 004°28'0 0.0
2017-Nov-09 17:59N 51°54' E 004°28'0 0.0
2017-Nov-09 17:29N 51°54' E 004°28'0 0.0
2017-Nov-09 16:59N 51°54' E 004°28'0 0.0
2017-Nov-09 16:29N 51°54' E 004°28'0 0.0
2017-Nov-09 15:59N 51°54' E 004°28'0 0.0
2017-Nov-09 15:29N 51°54' E 004°28'0 0.0
2017-Nov-09 14:59N 51°54' E 004°28'0 0.0
2017-Nov-09 14:29N 51°54' E 004°28'0 0.0
2017-Nov-09 13:59N 51°54' E 004°28'0 0.0
2017-Nov-09 13:29N 51°54' E 004°28'0 0.0
2017-Nov-09 12:59N 51°54' E 004°28'0 0.0
2017-Nov-09 12:29N 51°54' E 004°28'0 0.0
2017-Nov-09 11:59N 51°54' E 004°28'0 0.0
2017-Nov-09 11:29N 51°54' E 004°28'0 0.0
2017-Nov-09 10:59N 51°54' E 004°28'0 0.0
2017-Nov-09 10:29N 51°54' E 004°28'0 0.0
2017-Nov-09 09:59N 51°54' E 004°28'0 0.0
2017-Nov-09 09:29N 51°54' E 004°28'0 0.0
2017-Nov-09 08:59N 51°54' E 004°28'0 0.0
2017-Nov-09 08:29N 51°54' E 004°28'0 0.0
2017-Nov-09 07:59N 51°54' E 004°28'0 0.0
2017-Nov-09 07:29N 51°54' E 004°28'0 0.0
2017-Nov-09 06:59N 51°54' E 004°28'0 0.2
2017-Nov-09 06:30N 51°54' E 004°28'5 9.2
2017-Nov-09 06:00N 51°54' E 004°21'3 5.6
2017-Nov-09 05:28N 51°53' E 004°16'0 0.0
2017-Nov-09 04:58N 51°53' E 004°16'0 0.0
2017-Nov-09 04:28N 51°53' E 004°16'0 0.0
2017-Nov-09 03:58N 51°53' E 004°16'0 0.0
2017-Nov-09 03:28N 51°53' E 004°16'0 0.0
2017-Nov-09 02:58N 51°53' E 004°16'0 0.0
2017-Nov-09 02:28N 51°53' E 004°16'0 0.0
2017-Nov-09 01:58N 51°53' E 004°16'0 0.0
2017-Nov-09 01:28N 51°53' E 004°16'0 0.0
2017-Nov-09 00:58N 51°53' E 004°16'0 0.0
2017-Nov-09 00:25N 51°53' E 004°16'0 0.0
2017-Nov-08 23:58N 51°53' E 004°16'0 0.0
2017-Nov-08 23:28N 51°53' E 004°16'0 0.0
2017-Nov-08 22:58N 51°53' E 004°16'0 0.0
2017-Nov-08 22:28N 51°53' E 004°16'0 0.0
2017-Nov-08 21:58N 51°53' E 004°16'0 0.0
2017-Nov-08 21:28N 51°53' E 004°16'0 0.0
2017-Nov-08 20:55N 51°53' E 004°16'0 0.0
2017-Nov-08 20:28N 51°53' E 004°16'0 0.0
2017-Nov-08 19:58N 51°53' E 004°16'0 0.0
2017-Nov-08 19:28N 51°53' E 004°16'0 0.0
2017-Nov-08 18:58N 51°53' E 004°16'0 0.0
2017-Nov-08 18:28N 51°53' E 004°16'0 0.0
2017-Nov-08 17:58N 51°53' E 004°16'0 0.0
2017-Nov-08 17:28N 51°53' E 004°16'0 0.0
2017-Nov-08 16:58N 51°53' E 004°16'0 0.0
2017-Nov-08 16:28N 51°53' E 004°16'0 0.0
2017-Nov-08 15:58N 51°53' E 004°16'0 0.0
2017-Nov-08 15:28N 51°53' E 004°16'0 0.0
2017-Nov-08 14:58N 51°53' E 004°16'0 0.0
2017-Nov-08 14:25N 51°53' E 004°16'0 0.0
2017-Nov-08 13:58N 51°53' E 004°16'0 0.0
2017-Nov-08 13:28N 51°53' E 004°16'0 0.0
2017-Nov-08 12:58N 51°53' E 004°16'0 0.0
2017-Nov-08 12:28N 51°53' E 004°16'0 0.0
2017-Nov-08 11:58N 51°53' E 004°16'0 0.0
2017-Nov-08 11:31N 51°53' E 004°16'1 2.3
2017-Nov-08 11:01N 51°53' E 004°18'3 6.4
2017-Nov-08 10:31N 51°55' E 004°14'4 7.8
2017-Nov-08 10:00N 51°58' E 004°09'4 7.7
2017-Nov-08 09:31N 51°59' E 004°03'4 8.4
2017-Nov-08 09:00N 51°60' E 003°57'4 7.4
2017-Nov-08 08:31N 52°00' E 003°51'3 5.7
2017-Nov-08 08:00N 51°60' E 003°46'4 7.4
2017-Nov-08 07:30N 51°58' E 003°41'5 7.5
2017-Nov-08 06:53N 51°57' E 003°33'3 7.2
2017-Nov-08 06:26N 51°56' E 003°28'3 7.5
2017-Nov-08 06:00N 51°55' E 003°23'4 7.3
2017-Nov-08 05:28N 51°54' E 003°17'3 7.3
2017-Nov-08 05:00N 51°53' E 003°12'30 7.5
2017-Nov-08 01:00N 51°39' E 002°29'  

Dump ship's entire track history